createdAt,value
2023-02-06T00:01:39.221Z,104164.69
2023-02-06T00:04:06.223Z,104168.47
2023-02-06T00:06:33.712Z,104171.78
2023-02-06T00:09:01.126Z,104174.03
2023-02-06T00:11:28.239Z,104173.78
2023-02-06T00:13:55.337Z,104171.63
2023-02-06T00:16:29.244Z,104172.19
2023-02-06T00:18:58.209Z,104174.44
2023-02-06T00:21:27.046Z,104173.03
2023-02-06T00:23:56.931Z,104157.94
2023-02-06T00:26:25.363Z,104149.63
2023-02-06T00:28:52.973Z,104151.88
2023-02-06T00:31:20.150Z,104156.25
2023-02-06T00:33:48.606Z,104156.84
2023-02-06T00:36:15.530Z,104150.38
2023-02-06T00:38:42.545Z,104148.22
2023-02-06T00:41:09.731Z,104141.28
2023-02-06T00:43:37.748Z,104146.06
2023-02-06T00:46:05.285Z,104142.34
2023-02-06T00:48:32.402Z,104149.16
2023-02-06T00:50:59.396Z,104141.06
2023-02-06T00:53:27.971Z,104132.97
2023-02-06T00:55:55.132Z,104156.81
2023-02-06T00:58:22.448Z,104152.66
2023-02-06T01:00:49.664Z,104151.03
2023-02-06T01:03:16.704Z,104152.78
2023-02-06T01:05:43.697Z,104158.75
2023-02-06T01:08:10.802Z,104158.00
2023-02-06T01:10:40.870Z,104151.22
2023-02-06T01:13:07.923Z,104157.16
2023-02-06T01:15:35.222Z,104151.94
2023-02-06T01:18:02.592Z,104151.13
2023-02-06T01:20:29.944Z,104161.19
2023-02-06T01:22:57.025Z,104164.06
2023-02-06T01:25:24.040Z,104152.88
2023-02-06T01:27:51.145Z,104152.28
2023-02-06T01:30:18.426Z,104152.28
2023-02-06T01:32:45.593Z,104153.63
2023-02-06T01:35:13.267Z,104161.34
2023-02-06T01:37:40.857Z,104158.56
2023-02-06T01:40:14.200Z,104161.13
2023-02-06T01:42:41.854Z,104153.03
2023-02-06T01:45:31.118Z,104150.25
2023-02-06T01:48:04.144Z,104142.69
2023-02-06T01:50:34.610Z,104142.09
2023-02-06T01:53:04.568Z,104142.41
2023-02-06T01:55:33.511Z,104148.47
2023-02-06T01:58:02.545Z,104150.56
2023-02-06T02:00:29.622Z,104141.63
2023-02-06T02:02:57.691Z,104147.78
2023-02-06T02:05:24.813Z,104134.78
2023-02-06T02:08:01.397Z,104132.91
2023-02-06T02:10:30.946Z,104137.78
2023-02-06T02:12:58.174Z,104123.91
2023-02-06T02:15:44.208Z,104122.59
2023-02-06T02:19:05.213Z,104130.28
2023-02-06T02:21:53.753Z,104136.75
2023-02-06T02:25:03.116Z,104128.84
2023-02-06T02:28:16.699Z,104127.47
2023-02-06T02:31:19.673Z,104127.41
2023-02-06T02:34:38.507Z,104124.19
2023-02-06T02:37:51.764Z,104130.22
2023-02-06T02:40:42.520Z,104127.41
2023-02-06T02:43:42.086Z,104132.63
2023-02-06T02:46:17.617Z,104127.09
2023-02-06T02:48:48.714Z,104124.47
2023-02-06T02:51:16.724Z,104116.88
2023-02-06T02:53:44.021Z,104122.94
2023-02-06T02:56:22.950Z,104125.41
2023-02-06T02:59:19.275Z,104132.47
2023-02-06T03:01:57.016Z,104129.72
2023-02-06T03:04:30.669Z,104134.00
2023-02-06T03:07:28.228Z,104131.91
2023-02-06T03:10:20.507Z,104123.75
2023-02-06T03:13:04.295Z,104129.53
2023-02-06T03:15:56.675Z,104122.66
2023-02-06T03:18:50.883Z,104121.94
2023-02-06T03:21:21.510Z,104110.63
2023-02-06T03:23:52.778Z,104110.31
2023-02-06T03:26:23.856Z,104104.81
2023-02-06T03:28:57.049Z,104110.28
2023-02-06T03:31:31.014Z,104099.47
2023-02-06T03:34:20.776Z,104105.22
2023-02-06T03:36:49.168Z,104101.84
2023-02-06T03:39:16.315Z,104109.34
2023-02-06T03:41:45.602Z,104104.25
2023-02-06T03:44:19.926Z,104105.34
2023-02-06T03:46:48.151Z,104101.94
2023-02-06T03:49:17.595Z,104117.44
2023-02-06T03:51:57.717Z,104097.94
2023-02-06T03:54:26.831Z,104100.59
2023-02-06T03:56:58.225Z,104101.47
2023-02-06T03:59:25.431Z,104107.88
2023-02-06T04:01:56.653Z,104107.88
2023-02-06T04:04:29.109Z,104094.72
2023-02-06T04:06:59.231Z,104091.16
2023-02-06T04:09:26.255Z,104098.19
2023-02-06T04:11:53.320Z,104098.50
2023-02-06T04:14:20.372Z,104093.00
2023-02-06T04:16:47.463Z,104092.22
2023-02-06T04:19:14.506Z,104093.06
2023-02-06T04:21:41.592Z,104090.28
2023-02-06T04:24:08.677Z,104091.63
2023-02-06T04:26:35.714Z,104095.03
2023-02-06T04:29:02.746Z,104096.41
2023-02-06T04:31:29.874Z,104101.75
2023-02-06T04:33:56.944Z,104109.78
2023-02-06T04:36:23.885Z,104103.44
2023-02-06T04:38:51.355Z,104111.97
2023-02-06T04:41:18.345Z,104111.28
2023-02-06T04:43:45.365Z,104109.63
2023-02-06T04:46:12.400Z,104105.34
2023-02-06T04:48:39.505Z,104108.91
2023-02-06T04:51:07.122Z,104104.78
2023-02-06T04:53:34.176Z,104108.88
2023-02-06T04:56:11.038Z,104100.69
2023-02-06T04:58:39.922Z,104115.09
2023-02-06T05:01:07.628Z,104110.22
2023-02-06T05:03:34.712Z,104106.06
2023-02-06T05:06:03.181Z,104109.38
2023-02-06T05:08:30.780Z,104113.88
2023-02-06T05:10:58.786Z,104115.03
2023-02-06T05:13:26.092Z,104114.25
2023-02-06T05:15:53.391Z,104110.31
2023-02-06T05:18:20.542Z,104095.50
2023-02-06T05:20:47.526Z,104097.44
2023-02-06T05:23:14.634Z,104090.75
2023-02-06T05:25:42.387Z,104092.53
2023-02-06T05:28:10.592Z,104096.28
2023-02-06T05:30:37.890Z,104093.19
2023-02-06T05:33:04.911Z,104099.81
2023-02-06T05:35:31.928Z,104107.91
2023-02-06T05:37:59.164Z,104098.59
2023-02-06T05:40:26.464Z,104102.53
2023-02-06T05:42:53.452Z,104092.34
2023-02-06T05:45:20.434Z,104081.78
2023-02-06T05:47:47.460Z,104091.06
2023-02-06T05:50:14.695Z,104089.44
2023-02-06T05:52:41.680Z,104080.66
2023-02-06T05:55:09.391Z,104072.16
2023-02-06T05:57:36.379Z,104064.75
2023-02-06T06:00:05.940Z,104071.78
2023-02-06T06:02:32.928Z,104061.13
2023-02-06T06:04:59.981Z,104065.50
2023-02-06T06:07:27.087Z,104072.34
2023-02-06T06:09:54.337Z,104073.34
2023-02-06T06:12:21.312Z,104078.00
2023-02-06T06:14:48.340Z,104089.75
2023-02-06T06:17:15.565Z,104086.94
2023-02-06T06:19:42.664Z,104089.38
2023-02-06T06:22:11.493Z,104082.78
2023-02-06T06:24:38.443Z,104090.69
2023-02-06T06:27:05.490Z,104105.44
2023-02-06T06:29:32.571Z,104107.28
2023-02-06T06:31:59.670Z,104095.63
2023-02-06T06:34:27.439Z,104091.16
2023-02-06T06:37:00.954Z,104095.00
2023-02-06T06:39:28.000Z,104098.78
2023-02-06T06:41:55.055Z,104093.44
2023-02-06T06:44:22.279Z,104096.88
2023-02-06T06:46:49.319Z,104085.88
2023-02-06T06:49:16.389Z,104098.81
2023-02-06T06:51:43.366Z,104097.94
2023-02-06T06:54:10.365Z,104100.31
2023-02-06T06:56:37.325Z,104096.88
2023-02-06T06:59:04.351Z,104095.59
2023-02-06T07:01:31.440Z,104089.84
2023-02-06T07:04:01.308Z,104087.59
2023-02-06T07:06:28.726Z,104083.41
2023-02-06T07:08:55.845Z,104082.84
2023-02-06T07:11:24.310Z,104087.41
2023-02-06T07:13:51.588Z,104095.72
2023-02-06T07:16:19.161Z,104093.84
2023-02-06T07:18:46.178Z,104077.91
2023-02-06T07:21:15.862Z,104084.28
2023-02-06T07:23:42.930Z,104093.19
2023-02-06T07:26:10.010Z,104092.28
2023-02-06T07:28:37.480Z,104085.34
2023-02-06T07:31:06.872Z,104075.91
2023-02-06T07:33:35.028Z,104073.38
2023-02-06T07:36:04.006Z,104073.22
2023-02-06T07:38:31.501Z,104071.75
2023-02-06T07:41:02.944Z,104075.16
2023-02-06T07:43:30.788Z,104073.13
2023-02-06T07:46:03.458Z,104069.03
2023-02-06T07:48:31.124Z,104071.53
2023-02-06T07:51:04.889Z,104069.69
2023-02-06T07:53:31.939Z,104072.44
2023-02-06T07:55:58.857Z,104062.34
2023-02-06T07:58:26.011Z,104063.44
2023-02-06T08:00:54.733Z,104068.72
2023-02-06T08:03:21.997Z,104067.91
2023-02-06T08:05:49.086Z,104073.19
2023-02-06T08:08:16.033Z,104073.56
2023-02-06T08:10:43.100Z,104074.09
2023-02-06T08:13:10.038Z,104080.50
2023-02-06T08:15:37.111Z,104072.72
2023-02-06T08:18:04.427Z,104080.13
2023-02-06T08:20:31.410Z,104086.13
2023-02-06T08:22:58.709Z,104079.00
2023-02-06T08:25:25.820Z,104090.41
2023-02-06T08:27:56.668Z,104091.66
2023-02-06T08:30:24.189Z,104093.47
2023-02-06T08:32:51.369Z,104092.47
2023-02-06T08:35:18.439Z,104082.13
2023-02-06T08:37:45.792Z,104082.38
2023-02-06T08:40:12.990Z,104075.16
2023-02-06T08:42:40.001Z,104075.59
2023-02-06T08:45:07.657Z,104072.97
2023-02-06T08:47:34.617Z,104071.72
2023-02-06T08:50:03.383Z,104057.19
2023-02-06T08:52:30.729Z,104054.28
2023-02-06T08:54:58.187Z,104052.41
2023-02-06T08:57:25.155Z,104040.66
2023-02-06T08:59:52.253Z,104033.78
2023-02-06T09:02:19.318Z,104049.09
2023-02-06T09:04:46.459Z,104046.03
2023-02-06T09:07:14.725Z,104043.56
2023-02-06T09:09:43.265Z,104042.53
2023-02-06T09:12:11.976Z,104035.41
2023-02-06T09:14:39.456Z,104026.09
2023-02-06T09:17:06.469Z,104019.63
2023-02-06T09:19:33.477Z,104025.72
2023-02-06T09:22:00.975Z,104028.63
2023-02-06T09:24:30.136Z,104025.56
2023-02-06T09:27:00.147Z,104025.75
2023-02-06T09:29:34.348Z,104002.50
2023-02-06T09:32:01.514Z,104003.50
2023-02-06T09:34:28.665Z,103993.53
2023-02-06T09:36:56.818Z,103998.59
2023-02-06T09:39:25.015Z,104003.22
2023-02-06T09:41:56.944Z,103998.91
2023-02-06T09:44:37.215Z,104001.78
2023-02-06T09:47:29.217Z,103997.22
2023-02-06T09:50:02.664Z,104005.56
2023-02-06T09:53:28.408Z,104002.22
2023-02-06T09:56:22.855Z,103999.19
2023-02-06T09:59:04.445Z,103990.19
2023-02-06T10:02:12.855Z,103988.72
2023-02-06T10:04:48.934Z,103995.47
2023-02-06T10:07:39.400Z,103994.44
2023-02-06T10:10:17.706Z,103994.22
2023-02-06T10:13:13.610Z,103990.31
2023-02-06T10:15:46.531Z,104000.22
2023-02-06T10:18:29.476Z,104008.44
2023-02-06T10:21:06.020Z,104015.69
2023-02-06T10:24:05.351Z,104005.41
2023-02-06T10:26:34.828Z,104012.31
2023-02-06T10:29:02.712Z,104014.06
2023-02-06T10:31:45.144Z,104006.81
2023-02-06T10:34:24.601Z,104011.59
2023-02-06T10:37:30.784Z,104012.81
2023-02-06T10:40:31.776Z,104006.13
2023-02-06T10:43:23.195Z,104002.66
2023-02-06T10:46:30.302Z,104005.72
2023-02-06T10:49:43.888Z,104007.66
2023-02-06T10:52:24.793Z,103999.88
2023-02-06T10:54:56.990Z,104000.06
2023-02-06T10:57:28.579Z,104004.72
2023-02-06T11:00:00.927Z,103993.66
2023-02-06T11:02:49.006Z,103994.59
2023-02-06T11:05:26.684Z,103979.19
2023-02-06T11:08:18.832Z,103977.66
2023-02-06T11:10:46.655Z,103974.66
2023-02-06T11:13:33.447Z,103958.66
2023-02-06T11:16:13.020Z,103959.25
2023-02-06T11:18:49.346Z,103956.28
2023-02-06T11:22:23.387Z,103962.16
2023-02-06T11:25:07.907Z,103940.34
2023-02-06T11:27:36.664Z,103940.34
2023-02-06T11:30:36.676Z,103928.56
2023-02-06T11:33:26.721Z,103917.09
2023-02-06T11:35:59.985Z,103908.38
2023-02-06T11:38:30.581Z,103914.81
2023-02-06T11:41:09.307Z,103894.56
2023-02-06T11:43:42.273Z,103893.44
2023-02-06T11:46:26.621Z,103885.47
2023-02-06T11:48:56.287Z,103885.16
2023-02-06T11:51:24.689Z,103893.81
2023-02-06T11:54:00.906Z,103874.09
2023-02-06T11:56:31.049Z,103884.81
2023-02-06T11:59:16.703Z,103882.72
2023-02-06T12:01:46.853Z,103882.66
2023-02-06T12:04:32.492Z,103869.50
2023-02-06T12:07:06.720Z,103876.66
2023-02-06T12:09:33.738Z,103870.25
2023-02-06T12:12:32.912Z,103860.88
2023-02-06T12:15:46.102Z,103869.91
2023-02-06T12:18:24.392Z,103885.91
2023-02-06T12:21:06.420Z,103882.81
2023-02-06T12:24:31.809Z,103874.84
2023-02-06T12:27:04.461Z,103868.78
2023-02-06T12:29:43.896Z,103864.88
2023-02-06T12:32:25.013Z,103857.16
2023-02-06T12:35:04.105Z,103864.75
2023-02-06T12:37:39.749Z,103852.84
2023-02-06T12:40:38.338Z,103861.22
2023-02-06T12:43:15.359Z,103864.44
2023-02-06T12:46:11.597Z,103857.03
2023-02-06T12:48:56.955Z,103859.44
2023-02-06T12:51:50.876Z,103851.28
2023-02-06T12:54:30.839Z,103854.41
2023-02-06T12:57:20.291Z,103850.94
2023-02-06T13:00:23.101Z,103850.38
2023-02-06T13:03:29.436Z,103849.19
2023-02-06T13:06:25.671Z,103846.88
2023-02-06T13:09:03.524Z,103842.56
2023-02-06T13:11:40.648Z,103833.34
2023-02-06T13:14:19.331Z,103829.06
2023-02-06T13:17:11.849Z,103839.28
2023-02-06T13:19:41.874Z,103823.50
2023-02-06T13:22:13.069Z,103818.25
2023-02-06T13:24:51.398Z,103819.25
2023-02-06T13:27:19.249Z,103812.56
2023-02-06T13:29:49.254Z,103801.38
2023-02-06T13:32:18.467Z,103802.28
2023-02-06T13:34:53.782Z,103801.34
2023-02-06T13:37:44.150Z,103799.94
2023-02-06T13:40:35.335Z,103792.84
2023-02-06T13:43:10.796Z,103803.66
2023-02-06T13:46:06.189Z,103794.47
2023-02-06T13:49:07.952Z,103787.81
2023-02-06T13:51:50.419Z,103795.16
2023-02-06T13:54:48.374Z,103795.13
2023-02-06T13:57:50.248Z,103793.44
2023-02-06T14:00:31.287Z,103808.47
2023-02-06T14:03:22.041Z,103788.94
2023-02-06T14:06:07.848Z,103787.25
2023-02-06T14:09:08.865Z,103779.19
2023-02-06T14:12:32.368Z,103785.28
2023-02-06T14:15:47.895Z,103781.09
2023-02-06T14:18:24.294Z,103780.59
2023-02-06T14:21:30.244Z,103777.97
2023-02-06T14:23:57.107Z,103770.13
2023-02-06T14:26:50.247Z,103763.50
2023-02-06T14:29:17.098Z,103765.25
2023-02-06T14:32:27.094Z,103775.78
2023-02-06T14:35:14.949Z,103780.75
2023-02-06T14:37:54.880Z,103777.84
2023-02-06T14:40:26.666Z,103779.25
2023-02-06T14:43:01.504Z,103782.47
2023-02-06T14:45:42.083Z,103777.88
2023-02-06T14:48:29.483Z,103779.03
2023-02-06T14:50:58.281Z,103779.19
2023-02-06T14:53:37.198Z,103779.69
2023-02-06T14:56:17.140Z,103769.19
2023-02-06T14:58:46.465Z,103767.06
2023-02-06T15:01:18.485Z,103766.00
2023-02-06T15:03:49.123Z,103758.50
2023-02-06T15:06:38.474Z,103753.53
2023-02-06T15:09:06.609Z,103764.31
2023-02-06T15:11:34.677Z,103764.44
2023-02-06T15:14:20.726Z,103771.09
2023-02-06T15:16:50.286Z,103761.81
2023-02-06T15:19:24.717Z,103764.31
2023-02-06T15:22:03.899Z,103754.56
2023-02-06T15:24:43.842Z,103771.97
2023-02-06T15:27:33.258Z,103759.91
2023-02-06T15:30:02.613Z,103757.00
2023-02-06T15:32:40.461Z,103764.19
2023-02-06T15:35:28.996Z,103764.78
2023-02-06T15:37:56.885Z,103765.56
2023-02-06T15:40:33.043Z,103756.66
2023-02-06T15:43:02.715Z,103756.16
2023-02-06T15:45:37.032Z,103774.38
2023-02-06T15:48:41.033Z,103777.41
2023-02-06T15:51:25.151Z,103759.63
2023-02-06T15:54:16.208Z,103754.13
2023-02-06T15:56:48.571Z,103757.69
2023-02-06T15:59:20.941Z,103763.88
2023-02-06T16:01:48.973Z,103768.28
2023-02-06T16:04:19.769Z,103761.69
2023-02-06T16:07:12.629Z,103760.13
2023-02-06T16:09:50.800Z,103757.84
2023-02-06T16:12:18.465Z,103759.53
2023-02-06T16:15:01.084Z,103763.00
2023-02-06T16:17:41.188Z,103766.69
2023-02-06T16:20:41.029Z,103767.25
2023-02-06T16:23:30.581Z,103774.47
2023-02-06T16:26:14.986Z,103767.09
2023-02-06T16:28:53.967Z,103775.94
2023-02-06T16:31:21.166Z,103769.38
2023-02-06T16:33:51.519Z,103771.25
2023-02-06T16:36:20.911Z,103770.22
2023-02-06T16:38:57.795Z,103775.47
2023-02-06T16:41:38.379Z,103770.31
2023-02-06T16:44:12.920Z,103774.34
2023-02-06T16:46:40.162Z,103774.19
2023-02-06T16:49:20.168Z,103776.84
2023-02-06T16:51:49.223Z,103781.31
2023-02-06T16:54:26.008Z,103784.47
2023-02-06T16:56:54.971Z,103791.56
2023-02-06T16:59:22.482Z,103787.34
2023-02-06T17:01:49.532Z,103801.03
2023-02-06T17:04:16.524Z,103802.09
2023-02-06T17:06:43.523Z,103804.66
2023-02-06T17:09:17.826Z,103803.31
2023-02-06T17:11:45.031Z,103812.03
2023-02-06T17:14:11.972Z,103822.25
2023-02-06T17:16:38.906Z,103812.78
2023-02-06T17:19:05.865Z,103805.38
2023-02-06T17:21:33.190Z,103812.88
2023-02-06T17:24:00.342Z,103821.81
2023-02-06T17:26:27.575Z,103824.41
2023-02-06T17:28:54.591Z,103828.34
2023-02-06T17:31:21.898Z,103835.25
2023-02-06T17:33:49.282Z,103823.16
2023-02-06T17:36:29.677Z,103821.50
2023-02-06T17:39:00.798Z,103831.00
2023-02-06T17:41:28.344Z,103821.78
2023-02-06T17:43:55.304Z,103827.34
2023-02-06T17:46:22.429Z,103825.56
2023-02-06T17:48:49.608Z,103829.16
2023-02-06T17:51:16.596Z,103833.22
2023-02-06T17:53:43.682Z,103835.97
2023-02-06T17:56:12.994Z,103843.28
2023-02-06T17:58:41.437Z,103852.09
2023-02-06T18:01:19.621Z,103854.41
2023-02-06T18:03:48.032Z,103850.53
2023-02-06T18:06:15.442Z,103838.09
2023-02-06T18:08:43.018Z,103837.16
2023-02-06T18:11:19.557Z,103837.81
2023-02-06T18:13:49.219Z,103839.91
2023-02-06T18:16:22.866Z,103849.34
2023-02-06T18:18:50.691Z,103844.34
2023-02-06T18:21:19.735Z,103837.38
2023-02-06T18:23:48.379Z,103844.28
2023-02-06T18:26:16.203Z,103848.50
2023-02-06T18:28:43.466Z,103854.66
2023-02-06T18:31:33.333Z,103847.31
2023-02-06T18:34:02.710Z,103856.19
2023-02-06T18:36:30.274Z,103846.34
2023-02-06T18:38:57.985Z,103842.06
2023-02-06T18:41:43.638Z,103850.28
2023-02-06T18:44:11.999Z,103844.56
2023-02-06T18:46:40.203Z,103839.50
2023-02-06T18:49:07.570Z,103839.34
2023-02-06T18:51:34.588Z,103852.78
2023-02-06T18:54:02.262Z,103838.03
2023-02-06T18:56:29.276Z,103845.38
2023-02-06T18:58:56.272Z,103834.47
2023-02-06T19:01:25.445Z,103825.88
2023-02-06T19:03:53.471Z,103830.50
2023-02-06T19:06:31.840Z,103832.31
2023-02-06T19:08:59.831Z,103834.06
2023-02-06T19:11:27.289Z,103823.38
2023-02-06T19:13:55.355Z,103830.22
2023-02-06T19:16:22.375Z,103815.00
2023-02-06T19:18:50.332Z,103823.50
2023-02-06T19:21:22.439Z,103826.84
2023-02-06T19:23:58.529Z,103810.03
2023-02-06T19:26:26.151Z,103818.09
2023-02-06T19:28:53.961Z,103808.09
2023-02-06T19:31:25.046Z,103813.28
2023-02-06T19:33:55.575Z,103805.41
2023-02-06T19:36:26.160Z,103801.75
2023-02-06T19:39:02.170Z,103798.66
2023-02-06T19:41:32.071Z,103797.22
2023-02-06T19:44:05.578Z,103804.41
2023-02-06T19:46:33.326Z,103786.81
2023-02-06T19:49:00.664Z,103795.56
2023-02-06T19:51:34.691Z,103796.63
2023-02-06T19:54:02.129Z,103794.94
2023-02-06T19:56:38.281Z,103786.56
2023-02-06T19:59:21.980Z,103790.31
2023-02-06T20:01:58.837Z,103781.53
2023-02-06T20:04:34.665Z,103778.16
2023-02-06T20:07:02.384Z,103785.19
2023-02-06T20:09:29.765Z,103772.19
2023-02-06T20:11:57.626Z,103785.38
2023-02-06T20:14:25.870Z,103785.91
2023-02-06T20:16:52.998Z,103774.22
2023-02-06T20:19:25.270Z,103777.06
2023-02-06T20:21:56.968Z,103766.88
2023-02-06T20:24:28.067Z,103770.97
2023-02-06T20:26:59.302Z,103770.41
2023-02-06T20:29:39.126Z,103764.22
2023-02-06T20:32:07.087Z,103778.00
2023-02-06T20:34:35.537Z,103785.34
2023-02-06T20:37:03.360Z,103774.34
2023-02-06T20:39:31.083Z,103782.50
2023-02-06T20:41:58.650Z,103785.94
2023-02-06T20:44:26.401Z,103790.22
2023-02-06T20:46:53.418Z,103796.91
2023-02-06T20:49:25.921Z,103786.72
2023-02-06T20:51:53.628Z,103782.66
2023-02-06T20:54:21.696Z,103785.09
2023-02-06T20:56:49.205Z,103784.88
2023-02-06T20:59:18.946Z,103779.69
2023-02-06T21:01:46.152Z,103787.91
2023-02-06T21:04:14.789Z,103784.31
2023-02-06T21:06:43.314Z,103777.25
2023-02-06T21:09:11.520Z,103779.81
2023-02-06T21:11:45.993Z,103780.72
2023-02-06T21:14:14.290Z,103783.88
2023-02-06T21:16:43.721Z,103782.25
2023-02-06T21:19:13.692Z,103783.16
2023-02-06T21:21:43.667Z,103786.19
2023-02-06T21:24:12.558Z,103787.00
2023-02-06T21:26:39.585Z,103786.41
2023-02-06T21:29:07.839Z,103780.59
2023-02-06T21:31:38.614Z,103778.91
2023-02-06T21:34:21.465Z,103777.25
2023-02-06T21:36:48.865Z,103779.97
2023-02-06T21:39:19.350Z,103777.50
2023-02-06T21:41:47.871Z,103779.22
2023-02-06T21:44:14.930Z,103788.66
2023-02-06T21:46:41.907Z,103785.25
2023-02-06T21:49:11.534Z,103783.38
2023-02-06T21:51:38.993Z,103773.16
2023-02-06T21:54:06.142Z,103785.16
2023-02-06T21:56:36.458Z,103786.13
2023-02-06T21:59:04.782Z,103775.69
2023-02-06T22:01:35.738Z,103772.19
2023-02-06T22:04:04.227Z,103776.00
2023-02-06T22:06:32.669Z,103776.63
2023-02-06T22:09:05.260Z,103770.56
2023-02-06T22:11:32.607Z,103768.13
2023-02-06T22:14:03.437Z,103769.78
2023-02-06T22:16:30.847Z,103780.09
2023-02-06T22:18:58.483Z,103775.84
2023-02-06T22:21:28.569Z,103769.84
2023-02-06T22:24:01.898Z,103765.59
2023-02-06T22:26:33.830Z,103772.72
2023-02-06T22:29:01.246Z,103770.94
2023-02-06T22:31:31.318Z,103774.84
2023-02-06T22:33:59.908Z,103780.53
2023-02-06T22:36:30.295Z,103781.34
2023-02-06T22:39:06.666Z,103774.34
2023-02-06T22:41:35.542Z,103778.13
2023-02-06T22:44:03.514Z,103774.19
2023-02-06T22:46:35.264Z,103773.13
2023-02-06T22:49:04.941Z,103775.13
2023-02-06T22:51:32.325Z,103776.69
2023-02-06T22:54:00.841Z,103785.41
2023-02-06T22:56:32.057Z,103791.50
2023-02-06T22:59:21.096Z,103777.69
2023-02-06T23:01:54.656Z,103772.34
2023-02-06T23:04:36.142Z,103772.63
2023-02-06T23:07:03.155Z,103763.91
2023-02-06T23:09:34.865Z,103775.84
2023-02-06T23:12:02.664Z,103768.47
2023-02-06T23:14:32.340Z,103774.56
2023-02-06T23:17:04.028Z,103765.06
2023-02-06T23:19:31.356Z,103755.66
2023-02-06T23:21:58.387Z,103765.16
2023-02-06T23:24:25.310Z,103763.31
2023-02-06T23:26:53.728Z,103762.44
2023-02-06T23:29:22.327Z,103767.53
2023-02-06T23:31:50.018Z,103760.50
2023-02-06T23:34:18.201Z,103764.00
2023-02-06T23:36:46.139Z,103766.16
2023-02-06T23:39:13.422Z,103766.28
2023-02-06T23:41:40.606Z,103764.59
2023-02-06T23:44:08.976Z,103754.25
2023-02-06T23:46:38.721Z,103749.22
2023-02-06T23:49:06.889Z,103753.31
2023-02-06T23:51:35.224Z,103743.94
2023-02-06T23:54:02.790Z,103742.25
2023-02-06T23:56:31.499Z,103739.66
2023-02-06T23:59:01.216Z,103749.03
